sensor_id;sensor_type;location;lat;lon;timestamp;P1;durP1;ratioP1;P2;durP2;ratioP2
16543;SDS011;8384;47.996;7.786;2022-09-27T00:01:57;1.20;;;0.70;;
16543;SDS011;8384;47.996;7.786;2022-09-27T00:04:22;1.97;;;0.83;;
16543;SDS011;8384;47.996;7.786;2022-09-27T00:06:47;2.00;;;0.63;;
16543;SDS011;8384;47.996;7.786;2022-09-27T00:09:13;1.20;;;0.90;;
16543;SDS011;8384;47.996;7.786;2022-09-27T00:11:39;1.27;;;0.90;;
16543;SDS011;8384;47.996;7.786;2022-09-27T00:14:09;1.17;;;0.60;;
16543;SDS011;8384;47.996;7.786;2022-09-27T00:16:37;1.33;;;0.80;;
16543;SDS011;8384;47.996;7.786;2022-09-27T00:19:05;0.90;;;0.90;;
16543;SDS011;8384;47.996;7.786;2022-09-27T00:21:33;1.63;;;0.80;;
16543;SDS011;8384;47.996;7.786;2022-09-27T00:23:59;1.10;;;1.00;;
16543;SDS011;8384;47.996;7.786;2022-09-27T00:26:24;2.13;;;0.90;;
16543;SDS011;8384;47.996;7.786;2022-09-27T00:28:50;0.90;;;0.90;;
16543;SDS011;8384;47.996;7.786;2022-09-27T00:31:19;1.93;;;0.73;;
16543;SDS011;8384;47.996;7.786;2022-09-27T00:33:47;0.93;;;0.93;;
16543;SDS011;8384;47.996;7.786;2022-09-27T00:36:14;0.93;;;0.90;;
16543;SDS011;8384;47.996;7.786;2022-09-27T00:38:40;3.77;;;0.90;;
16543;SDS011;8384;47.996;7.786;2022-09-27T00:41:06;1.17;;;0.80;;
16543;SDS011;8384;47.996;7.786;2022-09-27T00:43:41;1.03;;;0.97;;
16543;SDS011;8384;47.996;7.786;2022-09-27T00:46:10;0.90;;;0.90;;
16543;SDS011;8384;47.996;7.786;2022-09-27T00:48:42;0.80;;;0.80;;
16543;SDS011;8384;47.996;7.786;2022-09-27T00:51:07;1.60;;;1.00;;
16543;SDS011;8384;47.996;7.786;2022-09-27T00:53:38;1.00;;;0.90;;
16543;SDS011;8384;47.996;7.786;2022-09-27T00:56:12;1.80;;;0.77;;
16543;SDS011;8384;47.996;7.786;2022-09-27T00:58:44;1.97;;;1.00;;
16543;SDS011;8384;47.996;7.786;2022-09-27T01:01:14;1.37;;;1.00;;
16543;SDS011;8384;47.996;7.786;2022-09-27T01:03:42;1.00;;;0.83;;
16543;SDS011;8384;47.996;7.786;2022-09-27T01:06:10;1.03;;;0.80;;
16543;SDS011;8384;47.996;7.786;2022-09-27T01:08:36;2.30;;;1.27;;
16543;SDS011;8384;47.996;7.786;2022-09-27T01:11:17;0.90;;;0.90;;
16543;SDS011;8384;47.996;7.786;2022-09-27T01:16:23;2.17;;;1.10;;
16543;SDS011;8384;47.996;7.786;2022-09-27T01:21:59;1.97;;;1.10;;
16543;SDS011;8384;47.996;7.786;2022-09-27T01:24:51;1.87;;;1.00;;
16543;SDS011;8384;47.996;7.786;2022-09-27T01:27:30;2.10;;;1.20;;
16543;SDS011;8384;47.996;7.786;2022-09-27T01:30:26;4.10;;;1.50;;
16543;SDS011;8384;47.996;7.786;2022-09-27T01:36:18;1.80;;;1.30;;
16543;SDS011;8384;47.996;7.786;2022-09-27T01:38:59;3.60;;;1.40;;
16543;SDS011;8384;47.996;7.786;2022-09-27T01:41:44;3.87;;;1.50;;
16543;SDS011;8384;47.996;7.786;2022-09-27T01:44:50;2.30;;;1.50;;
16543;SDS011;8384;47.996;7.786;2022-09-27T01:47:17;3.90;;;1.30;;
16543;SDS011;8384;47.996;7.786;2022-09-27T01:49:46;3.77;;;1.30;;
16543;SDS011;8384;47.996;7.786;2022-09-27T01:52:19;2.43;;;1.20;;
16543;SDS011;8384;47.996;7.786;2022-09-27T01:54:50;2.80;;;1.60;;
16543;SDS011;8384;47.996;7.786;2022-09-27T01:57:21;3.33;;;1.57;;
16543;SDS011;8384;47.996;7.786;2022-09-27T01:59:53;2.50;;;1.33;;
16543;SDS011;8384;47.996;7.786;2022-09-27T02:02:23;2.90;;;1.63;;
16543;SDS011;8384;47.996;7.786;2022-09-27T02:04:54;2.43;;;1.50;;
16543;SDS011;8384;47.996;7.786;2022-09-27T02:07:23;4.70;;;1.83;;
16543;SDS011;8384;47.996;7.786;2022-09-27T02:09:58;3.90;;;1.67;;
16543;SDS011;8384;47.996;7.786;2022-09-27T02:12:36;3.50;;;1.50;;
16543;SDS011;8384;47.996;7.786;2022-09-27T02:15:08;5.83;;;2.07;;
16543;SDS011;8384;47.996;7.786;2022-09-27T02:20:26;1.70;;;1.30;;
16543;SDS011;8384;47.996;7.786;2022-09-27T02:23:08;8.07;;;1.60;;
16543;SDS011;8384;47.996;7.786;2022-09-27T02:25:46;2.33;;;1.33;;
16543;SDS011;8384;47.996;7.786;2022-09-27T02:28:26;3.53;;;1.50;;
16543;SDS011;8384;47.996;7.786;2022-09-27T02:30:55;3.43;;;1.33;;
16543;SDS011;8384;47.996;7.786;2022-09-27T02:33:33;3.70;;;1.60;;
16543;SDS011;8384;47.996;7.786;2022-09-27T02:36:03;2.33;;;1.50;;
16543;SDS011;8384;47.996;7.786;2022-09-27T02:38:29;3.93;;;1.80;;
16543;SDS011;8384;47.996;7.786;2022-09-27T02:40:54;2.47;;;1.47;;
16543;SDS011;8384;47.996;7.786;2022-09-27T02:43:20;3.40;;;1.20;;
16543;SDS011;8384;47.996;7.786;2022-09-27T02:57:52;2.63;;;1.50;;
16543;SDS011;8384;47.996;7.786;2022-09-27T03:00:47;3.80;;;1.37;;
16543;SDS011;8384;47.996;7.786;2022-09-27T03:04:08;3.13;;;1.80;;
16543;SDS011;8384;47.996;7.786;2022-09-27T03:06:17;4.93;;;1.30;;
16543;SDS011;8384;47.996;7.786;2022-09-27T03:08:46;2.23;;;1.40;;
16543;SDS011;8384;47.996;7.786;2022-09-27T03:11:12;3.83;;;1.50;;
16543;SDS011;8384;47.996;7.786;2022-09-27T03:13:37;3.67;;;1.97;;
16543;SDS011;8384;47.996;7.786;2022-09-27T03:16:04;5.83;;;2.17;;
16543;SDS011;8384;47.996;7.786;2022-09-27T03:18:30;5.47;;;1.90;;
16543;SDS011;8384;47.996;7.786;2022-09-27T03:20:56;4.53;;;1.90;;
16543;SDS011;8384;47.996;7.786;2022-09-27T03:23:21;4.53;;;1.90;;
16543;SDS011;8384;47.996;7.786;2022-09-27T03:25:46;7.43;;;2.50;;
16543;SDS011;8384;47.996;7.786;2022-09-27T03:28:12;4.87;;;2.00;;
16543;SDS011;8384;47.996;7.786;2022-09-27T03:30:37;7.77;;;2.30;;
16543;SDS011;8384;47.996;7.786;2022-09-27T03:33:03;4.63;;;2.17;;
16543;SDS011;8384;47.996;7.786;2022-09-27T03:35:28;4.83;;;1.80;;
16543;SDS011;8384;47.996;7.786;2022-09-27T03:37:54;5.03;;;1.83;;
16543;SDS011;8384;47.996;7.786;2022-09-27T03:40:19;5.63;;;1.80;;
16543;SDS011;8384;47.996;7.786;2022-09-27T03:42:44;6.87;;;1.77;;
16543;SDS011;8384;47.996;7.786;2022-09-27T03:45:09;5.43;;;2.10;;
16543;SDS011;8384;47.996;7.786;2022-09-27T03:47:38;6.53;;;2.30;;
16543;SDS011;8384;47.996;7.786;2022-09-27T03:50:05;5.93;;;2.00;;
16543;SDS011;8384;47.996;7.786;2022-09-27T03:52:30;5.27;;;2.17;;
16543;SDS011;8384;47.996;7.786;2022-09-27T03:54:56;5.87;;;1.90;;
16543;SDS011;8384;47.996;7.786;2022-09-27T03:57:21;6.70;;;1.90;;
16543;SDS011;8384;47.996;7.786;2022-09-27T03:59:46;2.83;;;1.60;;
16543;SDS011;8384;47.996;7.786;2022-09-27T04:02:12;3.97;;;2.20;;
16543;SDS011;8384;47.996;7.786;2022-09-27T04:04:37;3.57;;;1.90;;
16543;SDS011;8384;47.996;7.786;2022-09-27T04:07:02;5.63;;;2.00;;
16543;SDS011;8384;47.996;7.786;2022-09-27T04:09:27;3.23;;;1.80;;
16543;SDS011;8384;47.996;7.786;2022-09-27T04:11:53;4.77;;;2.07;;
16543;SDS011;8384;47.996;7.786;2022-09-27T04:14:19;4.47;;;1.97;;
16543;SDS011;8384;47.996;7.786;2022-09-27T04:16:44;6.80;;;2.10;;
16543;SDS011;8384;47.996;7.786;2022-09-27T04:19:09;5.87;;;2.10;;
16543;SDS011;8384;47.996;7.786;2022-09-27T04:21:34;6.30;;;2.13;;
16543;SDS011;8384;47.996;7.786;2022-09-27T04:24:00;3.40;;;1.80;;
16543;SDS011;8384;47.996;7.786;2022-09-27T04:26:25;6.07;;;2.27;;
16543;SDS011;8384;47.996;7.786;2022-09-27T04:28:51;5.43;;;1.83;;
16543;SDS011;8384;47.996;7.786;2022-09-27T04:31:17;7.43;;;1.93;;
16543;SDS011;8384;47.996;7.786;2022-09-27T04:33:43;5.10;;;1.40;;
16543;SDS011;8384;47.996;7.786;2022-09-27T04:36:10;3.53;;;1.20;;
16543;SDS011;8384;47.996;7.786;2022-09-27T04:39:03;2.97;;;1.23;;
16543;SDS011;8384;47.996;7.786;2022-09-27T04:41:30;2.97;;;1.40;;
16543;SDS011;8384;47.996;7.786;2022-09-27T04:43:55;3.10;;;1.10;;
16543;SDS011;8384;47.996;7.786;2022-09-27T04:46:21;2.90;;;1.13;;
16543;SDS011;8384;47.996;7.786;2022-09-27T04:48:47;3.53;;;1.00;;
16543;SDS011;8384;47.996;7.786;2022-09-27T04:51:13;4.40;;;1.47;;
16543;SDS011;8384;47.996;7.786;2022-09-27T04:53:42;5.70;;;1.60;;
16543;SDS011;8384;47.996;7.786;2022-09-27T04:56:09;4.37;;;1.90;;
16543;SDS011;8384;47.996;7.786;2022-09-27T04:58:35;4.93;;;1.70;;
16543;SDS011;8384;47.996;7.786;2022-09-27T05:01:00;3.97;;;2.00;;
16543;SDS011;8384;47.996;7.786;2022-09-27T05:03:28;3.43;;;1.73;;
16543;SDS011;8384;47.996;7.786;2022-09-27T05:05:54;4.17;;;1.93;;
16543;SDS011;8384;47.996;7.786;2022-09-27T05:08:19;4.40;;;2.40;;
16543;SDS011;8384;47.996;7.786;2022-09-27T05:10:45;6.93;;;2.23;;
16543;SDS011;8384;47.996;7.786;2022-09-27T05:13:12;11.70;;;3.50;;
16543;SDS011;8384;47.996;7.786;2022-09-27T05:15:38;4.03;;;2.27;;
16543;SDS011;8384;47.996;7.786;2022-09-27T05:18:04;3.37;;;2.20;;
16543;SDS011;8384;47.996;7.786;2022-09-27T05:20:31;5.17;;;2.63;;
16543;SDS011;8384;47.996;7.786;2022-09-27T05:22:56;5.23;;;2.00;;
16543;SDS011;8384;47.996;7.786;2022-09-27T05:25:21;5.67;;;2.40;;
16543;SDS011;8384;47.996;7.786;2022-09-27T05:27:47;5.00;;;2.10;;
16543;SDS011;8384;47.996;7.786;2022-09-27T05:30:14;4.60;;;2.03;;
16543;SDS011;8384;47.996;7.786;2022-09-27T05:32:41;5.90;;;2.60;;
16543;SDS011;8384;47.996;7.786;2022-09-27T05:35:08;5.67;;;1.90;;
16543;SDS011;8384;47.996;7.786;2022-09-27T05:37:33;5.10;;;2.27;;
16543;SDS011;8384;47.996;7.786;2022-09-27T05:39:59;6.27;;;1.93;;
16543;SDS011;8384;47.996;7.786;2022-09-27T05:42:24;5.33;;;2.10;;
16543;SDS011;8384;47.996;7.786;2022-09-27T05:44:49;4.57;;;1.87;;
16543;SDS011;8384;47.996;7.786;2022-09-27T05:47:14;5.03;;;1.90;;
16543;SDS011;8384;47.996;7.786;2022-09-27T05:49:40;4.73;;;2.10;;
16543;SDS011;8384;47.996;7.786;2022-09-27T05:52:05;3.70;;;1.80;;
16543;SDS011;8384;47.996;7.786;2022-09-27T05:54:31;3.57;;;1.70;;
16543;SDS011;8384;47.996;7.786;2022-09-27T05:56:57;4.07;;;1.53;;
16543;SDS011;8384;47.996;7.786;2022-09-27T05:59:23;4.83;;;1.70;;
16543;SDS011;8384;47.996;7.786;2022-09-27T06:01:49;2.80;;;1.40;;
16543;SDS011;8384;47.996;7.786;2022-09-27T06:04:15;3.47;;;1.47;;
16543;SDS011;8384;47.996;7.786;2022-09-27T06:06:41;1.97;;;1.10;;
16543;SDS011;8384;47.996;7.786;2022-09-27T06:09:08;3.10;;;1.40;;
16543;SDS011;8384;47.996;7.786;2022-09-27T06:11:34;4.70;;;1.43;;
16543;SDS011;8384;47.996;7.786;2022-09-27T06:14:00;2.60;;;0.93;;
16543;SDS011;8384;47.996;7.786;2022-09-27T06:16:25;3.00;;;0.90;;
16543;SDS011;8384;47.996;7.786;2022-09-27T06:18:50;2.70;;;1.10;;
16543;SDS011;8384;47.996;7.786;2022-09-27T06:21:16;2.20;;;0.90;;
16543;SDS011;8384;47.996;7.786;2022-09-27T06:23:41;2.50;;;0.80;;
16543;SDS011;8384;47.996;7.786;2022-09-27T06:26:06;1.20;;;0.70;;
16543;SDS011;8384;47.996;7.786;2022-09-27T06:28:32;1.97;;;0.70;;
16543;SDS011;8384;47.996;7.786;2022-09-27T06:31:00;4.03;;;0.70;;
16543;SDS011;8384;47.996;7.786;2022-09-27T06:33:26;3.73;;;0.93;;
16543;SDS011;8384;47.996;7.786;2022-09-27T06:35:54;2.97;;;0.80;;
16543;SDS011;8384;47.996;7.786;2022-09-27T06:38:19;1.80;;;0.90;;
16543;SDS011;8384;47.996;7.786;2022-09-27T06:40:45;1.30;;;0.60;;
16543;SDS011;8384;47.996;7.786;2022-09-27T06:43:12;3.37;;;1.20;;
16543;SDS011;8384;47.996;7.786;2022-09-27T06:45:39;2.43;;;1.10;;
16543;SDS011;8384;47.996;7.786;2022-09-27T06:48:05;3.67;;;1.50;;
16543;SDS011;8384;47.996;7.786;2022-09-27T06:50:33;3.53;;;1.70;;
16543;SDS011;8384;47.996;7.786;2022-09-27T06:53:00;4.17;;;1.80;;
16543;SDS011;8384;47.996;7.786;2022-09-27T06:55:25;4.57;;;1.80;;
16543;SDS011;8384;47.996;7.786;2022-09-27T06:57:58;3.70;;;1.80;;
16543;SDS011;8384;47.996;7.786;2022-09-27T07:00:43;2.47;;;1.63;;
16543;SDS011;8384;47.996;7.786;2022-09-27T07:03:11;4.10;;;1.87;;
16543;SDS011;8384;47.996;7.786;2022-09-27T07:05:38;5.93;;;1.57;;
16543;SDS011;8384;47.996;7.786;2022-09-27T07:08:05;3.47;;;1.20;;
16543;SDS011;8384;47.996;7.786;2022-09-27T07:10:32;1.73;;;1.20;;
16543;SDS011;8384;47.996;7.786;2022-09-27T07:13:06;3.47;;;1.57;;
16543;SDS011;8384;47.996;7.786;2022-09-27T07:15:33;3.53;;;1.30;;
16543;SDS011;8384;47.996;7.786;2022-09-27T07:18:01;2.03;;;1.00;;
16543;SDS011;8384;47.996;7.786;2022-09-27T07:20:27;2.27;;;1.10;;
16543;SDS011;8384;47.996;7.786;2022-09-27T07:22:55;1.80;;;1.00;;
16543;SDS011;8384;47.996;7.786;2022-09-27T07:25:21;1.77;;;1.17;;
16543;SDS011;8384;47.996;7.786;2022-09-27T07:27:47;3.73;;;1.67;;
16543;SDS011;8384;47.996;7.786;2022-09-27T07:30:13;3.23;;;1.40;;
16543;SDS011;8384;47.996;7.786;2022-09-27T07:32:40;2.53;;;1.10;;
16543;SDS011;8384;47.996;7.786;2022-09-27T07:35:06;2.13;;;1.40;;
16543;SDS011;8384;47.996;7.786;2022-09-27T07:37:33;3.27;;;1.23;;
16543;SDS011;8384;47.996;7.786;2022-09-27T07:39:59;5.70;;;1.50;;
16543;SDS011;8384;47.996;7.786;2022-09-27T07:42:24;3.63;;;1.23;;
16543;SDS011;8384;47.996;7.786;2022-09-27T07:44:50;3.20;;;1.60;;
16543;SDS011;8384;47.996;7.786;2022-09-27T07:47:15;3.70;;;1.60;;
16543;SDS011;8384;47.996;7.786;2022-09-27T07:49:42;2.10;;;1.43;;
16543;SDS011;8384;47.996;7.786;2022-09-27T07:52:07;3.63;;;2.10;;
16543;SDS011;8384;47.996;7.786;2022-09-27T07:54:33;4.23;;;2.00;;
16543;SDS011;8384;47.996;7.786;2022-09-27T07:56:58;4.27;;;2.27;;
16543;SDS011;8384;47.996;7.786;2022-09-27T07:59:23;6.87;;;2.10;;
16543;SDS011;8384;47.996;7.786;2022-09-27T08:01:48;5.50;;;2.30;;
16543;SDS011;8384;47.996;7.786;2022-09-27T08:04:14;5.33;;;2.50;;
16543;SDS011;8384;47.996;7.786;2022-09-27T08:06:39;4.63;;;2.30;;
16543;SDS011;8384;47.996;7.786;2022-09-27T08:09:05;4.83;;;2.47;;
16543;SDS011;8384;47.996;7.786;2022-09-27T08:11:31;4.87;;;2.03;;
16543;SDS011;8384;47.996;7.786;2022-09-27T08:13:56;4.80;;;2.40;;
16543;SDS011;8384;47.996;7.786;2022-09-27T08:16:21;6.53;;;2.40;;
16543;SDS011;8384;47.996;7.786;2022-09-27T08:18:47;4.10;;;1.97;;
16543;SDS011;8384;47.996;7.786;2022-09-27T08:21:12;4.33;;;2.50;;
16543;SDS011;8384;47.996;7.786;2022-09-27T08:23:37;5.50;;;2.40;;
16543;SDS011;8384;47.996;7.786;2022-09-27T08:26:02;5.23;;;2.47;;
16543;SDS011;8384;47.996;7.786;2022-09-27T08:28:28;5.47;;;2.60;;
16543;SDS011;8384;47.996;7.786;2022-09-27T08:30:55;5.27;;;2.73;;
16543;SDS011;8384;47.996;7.786;2022-09-27T08:33:23;4.67;;;2.80;;
16543;SDS011;8384;47.996;7.786;2022-09-27T08:35:49;5.70;;;2.63;;
16543;SDS011;8384;47.996;7.786;2022-09-27T08:38:15;5.77;;;3.33;;
16543;SDS011;8384;47.996;7.786;2022-09-27T08:40:51;6.50;;;3.07;;
16543;SDS011;8384;47.996;7.786;2022-09-27T08:48:26;6.73;;;2.93;;
16543;SDS011;8384;47.996;7.786;2022-09-27T08:50:53;8.77;;;2.97;;
16543;SDS011;8384;47.996;7.786;2022-09-27T08:53:21;7.90;;;2.80;;
16543;SDS011;8384;47.996;7.786;2022-09-27T08:55:53;8.80;;;3.30;;
16543;SDS011;8384;47.996;7.786;2022-09-27T08:58:24;6.77;;;2.70;;
16543;SDS011;8384;47.996;7.786;2022-09-27T09:00:52;5.63;;;2.90;;
16543;SDS011;8384;47.996;7.786;2022-09-27T09:03:21;6.07;;;2.67;;
16543;SDS011;8384;47.996;7.786;2022-09-27T09:06:13;5.53;;;2.60;;
16543;SDS011;8384;47.996;7.786;2022-09-27T09:09:02;4.80;;;2.20;;
16543;SDS011;8384;47.996;7.786;2022-09-27T09:11:56;6.17;;;2.50;;
16543;SDS011;8384;47.996;7.786;2022-09-27T09:17:19;6.73;;;2.83;;
16543;SDS011;8384;47.996;7.786;2022-09-27T09:28:54;4.20;;;2.40;;
16543;SDS011;8384;47.996;7.786;2022-09-27T09:31:41;7.23;;;2.70;;
16543;SDS011;8384;47.996;7.786;2022-09-27T09:34:17;7.93;;;3.00;;
16543;SDS011;8384;47.996;7.786;2022-09-27T09:37:48;4.80;;;2.73;;
16543;SDS011;8384;47.996;7.786;2022-09-27T09:42:26;5.33;;;3.00;;
16543;SDS011;8384;47.996;7.786;2022-09-27T09:45:02;7.77;;;3.07;;
16543;SDS011;8384;47.996;7.786;2022-09-27T09:47:37;3.93;;;2.20;;
16543;SDS011;8384;47.996;7.786;2022-09-27T09:50:16;3.87;;;2.10;;
16543;SDS011;8384;47.996;7.786;2022-09-27T09:52:50;4.77;;;1.90;;
16543;SDS011;8384;47.996;7.786;2022-09-27T09:55:21;5.77;;;2.07;;
16543;SDS011;8384;47.996;7.786;2022-09-27T10:00:32;6.87;;;2.37;;
16543;SDS011;8384;47.996;7.786;2022-09-27T10:02:58;6.00;;;2.03;;
16543;SDS011;8384;47.996;7.786;2022-09-27T10:05:25;4.90;;;2.13;;
16543;SDS011;8384;47.996;7.786;2022-09-27T10:07:53;4.87;;;1.90;;
16543;SDS011;8384;47.996;7.786;2022-09-27T10:10:22;3.53;;;1.83;;
16543;SDS011;8384;47.996;7.786;2022-09-27T10:12:48;2.93;;;1.33;;
16543;SDS011;8384;47.996;7.786;2022-09-27T10:15:23;3.60;;;1.60;;
16543;SDS011;8384;47.996;7.786;2022-09-27T10:17:53;2.87;;;1.70;;
16543;SDS011;8384;47.996;7.786;2022-09-27T10:20:29;3.40;;;1.17;;
16543;SDS011;8384;47.996;7.786;2022-09-27T10:23:17;5.47;;;1.03;;
16543;SDS011;8384;47.996;7.786;2022-09-27T10:25:46;3.40;;;1.30;;
16543;SDS011;8384;47.996;7.786;2022-09-27T10:31:06;2.83;;;0.97;;
16543;SDS011;8384;47.996;7.786;2022-09-27T10:33:37;2.23;;;1.30;;
16543;SDS011;8384;47.996;7.786;2022-09-27T10:36:23;1.97;;;0.80;;
16543;SDS011;8384;47.996;7.786;2022-09-27T10:38:54;4.03;;;0.80;;
16543;SDS011;8384;47.996;7.786;2022-09-27T10:41:31;1.50;;;1.03;;
16543;SDS011;8384;47.996;7.786;2022-09-27T10:46:56;2.33;;;0.80;;
16543;SDS011;8384;47.996;7.786;2022-09-27T10:49:28;1.37;;;0.80;;
16543;SDS011;8384;47.996;7.786;2022-09-27T10:51:58;2.77;;;1.00;;
16543;SDS011;8384;47.996;7.786;2022-09-27T10:54:27;4.57;;;1.10;;
16543;SDS011;8384;47.996;7.786;2022-09-27T10:57:02;1.27;;;0.80;;
16543;SDS011;8384;47.996;7.786;2022-09-27T10:59:33;3.77;;;1.20;;
16543;SDS011;8384;47.996;7.786;2022-09-27T11:02:02;1.20;;;0.80;;
16543;SDS011;8384;47.996;7.786;2022-09-27T11:04:34;2.27;;;1.00;;
16543;SDS011;8384;47.996;7.786;2022-09-27T11:07:12;2.07;;;0.80;;
16543;SDS011;8384;47.996;7.786;2022-09-27T11:09:47;3.10;;;1.00;;
16543;SDS011;8384;47.996;7.786;2022-09-27T11:12:17;3.10;;;1.20;;
16543;SDS011;8384;47.996;7.786;2022-09-27T11:14:52;2.27;;;0.97;;
16543;SDS011;8384;47.996;7.786;2022-09-27T11:17:26;2.53;;;1.00;;
16543;SDS011;8384;47.996;7.786;2022-09-27T11:22:48;1.83;;;0.90;;
16543;SDS011;8384;47.996;7.786;2022-09-27T11:34:27;2.83;;;1.17;;
16543;SDS011;8384;47.996;7.786;2022-09-27T11:37:21;0.93;;;0.80;;
16543;SDS011;8384;47.996;7.786;2022-09-27T11:48:29;3.63;;;1.30;;
16543;SDS011;8384;47.996;7.786;2022-09-27T11:51:41;3.43;;;1.10;;
16543;SDS011;8384;47.996;7.786;2022-09-27T11:54:22;4.60;;;1.37;;
16543;SDS011;8384;47.996;7.786;2022-09-27T11:57:14;2.90;;;1.10;;
16543;SDS011;8384;47.996;7.786;2022-09-27T12:05:24;3.27;;;1.50;;
16543;SDS011;8384;47.996;7.786;2022-09-27T12:10:48;5.07;;;1.97;;
16543;SDS011;8384;47.996;7.786;2022-09-27T12:13:26;3.33;;;1.27;;
16543;SDS011;8384;47.996;7.786;2022-09-27T12:15:58;3.43;;;1.43;;
16543;SDS011;8384;47.996;7.786;2022-09-27T12:18:25;3.43;;;1.40;;
16543;SDS011;8384;47.996;7.786;2022-09-27T12:21:02;5.00;;;1.60;;
16543;SDS011;8384;47.996;7.786;2022-09-27T12:23:34;4.43;;;1.10;;
16543;SDS011;8384;47.996;7.786;2022-09-27T12:26:06;3.50;;;1.10;;
16543;SDS011;8384;47.996;7.786;2022-09-27T12:34:15;1.83;;;1.20;;
16543;SDS011;8384;47.996;7.786;2022-09-27T12:36:56;2.50;;;1.10;;
16543;SDS011;8384;47.996;7.786;2022-09-27T12:39:27;4.67;;;1.30;;
16543;SDS011;8384;47.996;7.786;2022-09-27T12:42:09;2.37;;;1.03;;
16543;SDS011;8384;47.996;7.786;2022-09-27T12:44:40;1.57;;;0.80;;
16543;SDS011;8384;47.996;7.786;2022-09-27T12:47:16;2.17;;;0.90;;
16543;SDS011;8384;47.996;7.786;2022-09-27T12:50:02;2.00;;;0.83;;
16543;SDS011;8384;47.996;7.786;2022-09-27T12:52:39;1.93;;;0.90;;
16543;SDS011;8384;47.996;7.786;2022-09-27T12:57:48;2.40;;;0.80;;
16543;SDS011;8384;47.996;7.786;2022-09-27T13:00:27;1.83;;;0.70;;
16543;SDS011;8384;47.996;7.786;2022-09-27T13:06:27;0.87;;;0.60;;
16543;SDS011;8384;47.996;7.786;2022-09-27T13:09:19;2.23;;;1.10;;
16543;SDS011;8384;47.996;7.786;2022-09-27T13:12:01;2.50;;;1.00;;
16543;SDS011;8384;47.996;7.786;2022-09-27T13:14:37;2.00;;;0.90;;
16543;SDS011;8384;47.996;7.786;2022-09-27T13:17:30;3.27;;;1.27;;
16543;SDS011;8384;47.996;7.786;2022-09-27T13:23:01;1.50;;;0.90;;
16543;SDS011;8384;47.996;7.786;2022-09-27T13:30:52;2.90;;;1.20;;
16543;SDS011;8384;47.996;7.786;2022-09-27T13:38:50;1.77;;;0.70;;
16543;SDS011;8384;47.996;7.786;2022-09-27T13:41:17;2.73;;;0.90;;
16543;SDS011;8384;47.996;7.786;2022-09-27T13:46:49;0.73;;;0.73;;
16543;SDS011;8384;47.996;7.786;2022-09-27T13:49:26;2.30;;;0.80;;
16543;SDS011;8384;47.996;7.786;2022-09-27T13:52:05;3.33;;;0.90;;
16543;SDS011;8384;47.996;7.786;2022-09-27T13:54:51;2.20;;;0.80;;
16543;SDS011;8384;47.996;7.786;2022-09-27T14:00:03;1.93;;;0.90;;
16543;SDS011;8384;47.996;7.786;2022-09-27T14:02:36;1.80;;;0.70;;
16543;SDS011;8384;47.996;7.786;2022-09-27T14:05:10;1.10;;;0.70;;
16543;SDS011;8384;47.996;7.786;2022-09-27T14:07:42;2.60;;;1.10;;
16543;SDS011;8384;47.996;7.786;2022-09-27T14:10:11;1.67;;;0.80;;
16543;SDS011;8384;47.996;7.786;2022-09-27T14:12:39;0.80;;;0.40;;
16543;SDS011;8384;47.996;7.786;2022-09-27T14:15:06;0.90;;;0.50;;
16543;SDS011;8384;47.996;7.786;2022-09-27T14:17:34;0.97;;;0.63;;
16543;SDS011;8384;47.996;7.786;2022-09-27T14:20:27;0.73;;;0.57;;
16543;SDS011;8384;47.996;7.786;2022-09-27T14:23:01;2.73;;;0.70;;
16543;SDS011;8384;47.996;7.786;2022-09-27T14:25:27;1.10;;;0.70;;
16543;SDS011;8384;47.996;7.786;2022-09-27T14:27:53;1.87;;;0.73;;
16543;SDS011;8384;47.996;7.786;2022-09-27T14:30:20;1.20;;;0.60;;
16543;SDS011;8384;47.996;7.786;2022-09-27T14:32:51;1.17;;;0.73;;
16543;SDS011;8384;47.996;7.786;2022-09-27T14:35:23;2.83;;;1.23;;
16543;SDS011;8384;47.996;7.786;2022-09-27T14:38:15;1.00;;;0.87;;
16543;SDS011;8384;47.996;7.786;2022-09-27T14:40:43;2.00;;;0.80;;
16543;SDS011;8384;47.996;7.786;2022-09-27T14:43:22;1.17;;;0.80;;
16543;SDS011;8384;47.996;7.786;2022-09-27T14:45:48;1.80;;;0.60;;
16543;SDS011;8384;47.996;7.786;2022-09-27T14:48:29;1.77;;;1.00;;
16543;SDS011;8384;47.996;7.786;2022-09-27T14:51:00;1.10;;;0.70;;
16543;SDS011;8384;47.996;7.786;2022-09-27T14:53:29;3.77;;;1.13;;
16543;SDS011;8384;47.996;7.786;2022-09-27T14:55:56;1.47;;;0.97;;
16543;SDS011;8384;47.996;7.786;2022-09-27T14:58:24;0.97;;;0.70;;
16543;SDS011;8384;47.996;7.786;2022-09-27T15:00:50;1.70;;;1.07;;
16543;SDS011;8384;47.996;7.786;2022-09-27T15:03:24;0.93;;;0.50;;
16543;SDS011;8384;47.996;7.786;2022-09-27T15:05:54;0.80;;;0.80;;
16543;SDS011;8384;47.996;7.786;2022-09-27T15:08:20;0.90;;;0.70;;
16543;SDS011;8384;47.996;7.786;2022-09-27T15:10:47;0.70;;;0.53;;
16543;SDS011;8384;47.996;7.786;2022-09-27T15:13:14;0.77;;;0.73;;
16543;SDS011;8384;47.996;7.786;2022-09-27T15:15:42;1.00;;;0.70;;
16543;SDS011;8384;47.996;7.786;2022-09-27T15:21:01;1.77;;;0.70;;
16543;SDS011;8384;47.996;7.786;2022-09-27T15:23:28;1.53;;;0.60;;
16543;SDS011;8384;47.996;7.786;2022-09-27T15:26:06;1.40;;;0.70;;
16543;SDS011;8384;47.996;7.786;2022-09-27T15:28:35;0.90;;;0.60;;
16543;SDS011;8384;47.996;7.786;2022-09-27T15:31:04;0.77;;;0.70;;
16543;SDS011;8384;47.996;7.786;2022-09-27T15:33:31;0.93;;;0.50;;
16543;SDS011;8384;47.996;7.786;2022-09-27T15:35:59;1.13;;;0.50;;
16543;SDS011;8384;47.996;7.786;2022-09-27T15:38:29;1.50;;;0.50;;
16543;SDS011;8384;47.996;7.786;2022-09-27T15:40:58;0.77;;;0.50;;
16543;SDS011;8384;47.996;7.786;2022-09-27T15:43:30;2.00;;;0.60;;
16543;SDS011;8384;47.996;7.786;2022-09-27T15:45:57;0.63;;;0.40;;
16543;SDS011;8384;47.996;7.786;2022-09-27T15:48:26;1.50;;;0.60;;
16543;SDS011;8384;47.996;7.786;2022-09-27T15:50:52;1.13;;;0.40;;
16543;SDS011;8384;47.996;7.786;2022-09-27T15:55:58;1.13;;;0.60;;
16543;SDS011;8384;47.996;7.786;2022-09-27T15:58:24;0.77;;;0.50;;
16543;SDS011;8384;47.996;7.786;2022-09-27T16:00:50;1.07;;;0.50;;
16543;SDS011;8384;47.996;7.786;2022-09-27T16:03:19;1.00;;;0.67;;
16543;SDS011;8384;47.996;7.786;2022-09-27T16:05:45;0.53;;;0.47;;
16543;SDS011;8384;47.996;7.786;2022-09-27T16:08:11;1.43;;;0.60;;
16543;SDS011;8384;47.996;7.786;2022-09-27T16:10:40;0.30;;;0.30;;
16543;SDS011;8384;47.996;7.786;2022-09-27T16:13:09;1.03;;;0.30;;
16543;SDS011;8384;47.996;7.786;2022-09-27T16:15:34;1.23;;;0.53;;
16543;SDS011;8384;47.996;7.786;2022-09-27T16:18:00;1.03;;;0.50;;
16543;SDS011;8384;47.996;7.786;2022-09-27T16:20:25;0.80;;;0.30;;
16543;SDS011;8384;47.996;7.786;2022-09-27T16:22:51;0.87;;;0.43;;
16543;SDS011;8384;47.996;7.786;2022-09-27T16:25:18;1.80;;;0.50;;
16543;SDS011;8384;47.996;7.786;2022-09-27T16:27:44;0.20;;;0.20;;
16543;SDS011;8384;47.996;7.786;2022-09-27T16:30:10;0.70;;;0.40;;
16543;SDS011;8384;47.996;7.786;2022-09-27T16:32:42;1.17;;;0.60;;
16543;SDS011;8384;47.996;7.786;2022-09-27T16:35:09;0.90;;;0.50;;
16543;SDS011;8384;47.996;7.786;2022-09-27T16:37:35;1.70;;;0.47;;
16543;SDS011;8384;47.996;7.786;2022-09-27T16:40:02;0.87;;;0.47;;
16543;SDS011;8384;47.996;7.786;2022-09-27T16:42:28;0.67;;;0.40;;
16543;SDS011;8384;47.996;7.786;2022-09-27T16:44:54;0.80;;;0.47;;
16543;SDS011;8384;47.996;7.786;2022-09-27T16:47:19;1.53;;;0.50;;
16543;SDS011;8384;47.996;7.786;2022-09-27T16:49:44;1.47;;;0.70;;
16543;SDS011;8384;47.996;7.786;2022-09-27T16:52:28;0.70;;;0.50;;
16543;SDS011;8384;47.996;7.786;2022-09-27T16:54:55;0.90;;;0.50;;
16543;SDS011;8384;47.996;7.786;2022-09-27T16:57:20;0.60;;;0.50;;
16543;SDS011;8384;47.996;7.786;2022-09-27T16:59:46;1.43;;;0.70;;
16543;SDS011;8384;47.996;7.786;2022-09-27T17:02:12;1.37;;;0.60;;
16543;SDS011;8384;47.996;7.786;2022-09-27T17:04:37;1.30;;;0.63;;
16543;SDS011;8384;47.996;7.786;2022-09-27T17:07:02;0.30;;;0.30;;
16543;SDS011;8384;47.996;7.786;2022-09-27T17:09:28;1.30;;;0.53;;
16543;SDS011;8384;47.996;7.786;2022-09-27T17:11:53;0.53;;;0.50;;
16543;SDS011;8384;47.996;7.786;2022-09-27T17:14:20;0.83;;;0.60;;
16543;SDS011;8384;47.996;7.786;2022-09-27T17:16:46;0.80;;;0.60;;